Time;durP1;ratioP1;P1;durP2;ratioP2;P2;SDS_P1;SDS_P2;PMS_P1;PMS_P2;Temp;Humidity;BMP_temperature;BMP_pressure;BME280_temperature;BME280_humidity;BME280_pressure;Samples;Min_cycle;Max_cycle;Signal;HPM_P1;HPM_P2
2021/03/30 00:00:37;;;;;;;4.53;3.13;;;14.50;97.70;;;;;;5101699;28;20785;-52
2021/03/30 00:03:06;;;;;;;5.90;3.67;;;14.50;98.00;;;;;;5101488;28;20489;-51
2021/03/30 00:05:34;;;;;;;8.13;4.37;;;14.40;98.00;;;;;;5101467;28;20749;-55
2021/03/30 00:08:02;;;;;;;7.13;3.30;;;14.40;98.30;;;;;;5099728;28;20449;-47
2021/03/30 00:10:37;;;;;;;5.47;3.00;;;14.30;98.20;;;;;;5106684;28;21006;-51
2021/03/30 00:13:06;;;;;;;5.30;3.30;;;14.30;98.30;;;;;;5098810;28;20808;-50
2021/03/30 00:15:34;;;;;;;5.27;3.93;;;14.30;98.30;;;;;;5099791;28;22263;-52
2021/03/30 00:18:03;;;;;;;6.47;3.53;;;14.30;98.50;;;;;;5100707;28;20454;-52
2021/03/30 00:20:32;;;;;;;6.43;3.33;;;14.30;98.20;;;;;;5099981;28;20755;-51
2021/03/30 00:23:00;;;;;;;4.80;3.60;;;14.30;98.40;;;;;;5101314;28;20775;-48
2021/03/30 00:25:28;;;;;;;7.50;3.70;;;14.20;98.40;;;;;;5101602;28;20813;-45
2021/03/30 00:27:58;;;;;;;4.73;3.10;;;14.30;98.40;;;;;;5101769;28;20785;-46
2021/03/30 00:30:27;;;;;;;9.10;3.57;;;14.20;98.40;;;;;;5101466;28;20926;-50
2021/03/30 00:32:56;;;;;;;10.17;3.97;;;14.20;98.60;;;;;;5101709;28;20865;-53
2021/03/30 00:35:25;;;;;;;5.33;3.17;;;14.20;98.60;;;;;;5101628;28;20832;-50
2021/03/30 00:37:53;;;;;;;8.63;3.80;;;14.10;99.00;;;;;;5101668;28;20460;-47
2021/03/30 00:40:22;;;;;;;6.90;3.73;;;14.10;98.90;;;;;;5101726;28;20449;-49
2021/03/30 00:42:54;;;;;;;6.30;3.13;;;14.10;99.10;;;;;;5101017;28;20878;-52
2021/03/30 00:45:23;;;;;;;6.73;3.30;;;14.10;99.10;;;;;;5101071;28;20770;-51
2021/03/30 00:47:52;;;;;;;5.27;3.67;;;14.00;99.50;;;;;;5101565;28;20461;-47
2021/03/30 00:50:22;;;;;;;5.53;3.30;;;14.00;99.60;;;;;;5101980;28;20797;-47
2021/03/30 00:52:51;;;;;;;5.30;3.10;;;14.00;99.80;;;;;;5101507;28;20760;-51
2021/03/30 00:55:20;;;;;;;6.33;3.53;;;13.90;99.90;;;;;;5101057;28;20455;-49
2021/03/30 00:57:49;;;;;;;5.70;3.27;;;13.80;99.90;;;;;;5101361;28;20849;-49
2021/03/30 01:00:19;;;;;;;7.60;3.47;;;13.80;99.90;;;;;;5100799;28;20449;-50
2021/03/30 01:02:49;;;;;;;7.60;3.90;;;13.80;99.90;;;;;;5100793;28;20751;-49
2021/03/30 01:05:18;;;;;;;11.10;4.83;;;13.70;99.90;;;;;;5101328;28;20774;-50
2021/03/30 01:08:06;;;;;;;7.80;2.90;;;13.80;99.90;;;;;;5101147;28;20954;-49
2021/03/30 01:10:44;;;;;;;5.60;4.23;;;13.70;99.90;;;;;;5101178;28;20809;-49
2021/03/30 01:13:50;;;;;;;5.80;3.37;;;13.70;99.90;;;;;;5101444;28;20833;-46
2021/03/30 01:16:22;;;;;;;5.57;4.00;;;13.60;99.90;;;;;;5095326;28;20765;-49
2021/03/30 01:18:59;;;;;;;5.90;3.60;;;13.60;99.90;;;;;;5101232;28;20788;-52
2021/03/30 01:22:05;;;;;;;7.70;4.20;;;13.50;99.90;;;;;;5101420;28;20449;-47
2021/03/30 01:24:37;;;;;;;10.63;4.63;;;13.50;99.90;;;;;;5101318;28;20802;-51
2021/03/30 01:27:07;;;;;;;5.47;3.47;;;13.50;99.90;;;;;;5101081;28;20479;-49
2021/03/30 01:29:48;;;;;;;7.57;4.23;;;13.50;99.90;;;;;;5101221;28;20545;-48
2021/03/30 01:32:30;;;;;;;4.40;3.03;;;13.50;99.90;;;;;;5101445;28;20454;-49
2021/03/30 01:35:00;;;;;;;6.83;4.13;;;13.40;99.90;;;;;;5101660;28;20805;-45
2021/03/30 01:37:29;;;;;;;7.70;3.77;;;13.40;99.90;;;;;;5101728;28;20512;-44
2021/03/30 01:40:01;;;;;;;5.77;3.47;;;13.40;99.90;;;;;;5101344;28;20977;-51
2021/03/30 01:42:32;;;;;;;7.83;4.57;;;13.40;99.90;;;;;;5101437;28;20553;-46
2021/03/30 01:45:03;;;;;;;8.80;4.07;;;13.30;99.90;;;;;;5101754;28;20801;-49
2021/03/30 01:47:33;;;;;;;6.67;3.30;;;13.30;99.90;;;;;;5101823;28;20770;-48
2021/03/30 01:50:04;;;;;;;5.47;4.40;;;13.30;99.90;;;;;;5101101;28;20767;-52
2021/03/30 01:52:35;;;;;;;5.40;3.57;;;13.20;99.90;;;;;;5100632;28;20922;-47
2021/03/30 01:55:05;;;;;;;5.40;3.30;;;13.20;99.90;;;;;;5101842;28;20771;-49
2021/03/30 01:57:34;;;;;;;8.37;3.77;;;13.20;99.90;;;;;;5101235;28;20457;-52
2021/03/30 02:00:08;;;;;;;5.30;3.50;;;13.20;99.90;;;;;;5101517;28;20821;-50
2021/03/30 02:02:38;;;;;;;9.47;3.57;;;13.10;99.90;;;;;;5100936;28;20779;-52
2021/03/30 02:05:09;;;;;;;6.13;3.53;;;13.10;99.90;;;;;;5100994;28;20761;-51
2021/03/30 02:07:38;;;;;;;12.67;4.77;;;13.00;99.90;;;;;;5100080;28;20864;-51
2021/03/30 02:10:11;;;;;;;8.33;4.03;;;13.00;99.90;;;;;;5100460;28;20827;-51
2021/03/30 02:12:43;;;;;;;10.00;3.80;;;12.90;99.90;;;;;;5100884;28;20851;-48
2021/03/30 02:15:15;;;;;;;5.87;4.07;;;12.90;99.90;;;;;;5100938;28;20898;-50
2021/03/30 02:17:52;;;;;;;7.83;5.53;;;12.90;99.90;;;;;;5101503;28;20774;-50
2021/03/30 02:20:25;;;;;;;4.30;3.47;;;12.90;99.90;;;;;;5101270;28;20774;-51
2021/03/30 02:22:58;;;;;;;7.30;3.90;;;12.80;99.90;;;;;;5100618;28;20518;-49
2021/03/30 02:25:30;;;;;;;21.33;4.27;;;12.80;99.90;;;;;;5100720;28;20454;-51
2021/03/30 02:28:04;;;;;;;6.50;3.93;;;12.80;99.90;;;;;;5100685;28;20902;-50
2021/03/30 02:30:36;;;;;;;6.20;3.27;;;12.80;99.90;;;;;;5101155;28;20418;-46
2021/03/30 02:33:07;;;;;;;8.47;3.53;;;12.70;99.90;;;;;;5097419;28;20808;-47
2021/03/30 02:35:36;;;;;;;7.90;3.63;;;12.80;99.90;;;;;;5094073;28;20779;-46
2021/03/30 02:38:06;;;;;;;3.90;3.50;;;12.80;99.90;;;;;;5094076;28;20769;-49
2021/03/30 02:40:35;;;;;;;9.53;3.83;;;12.70;99.90;;;;;;5094463;28;20783;-51
2021/03/30 02:43:06;;;;;;;10.10;3.47;;;12.70;99.90;;;;;;5094007;28;20821;-47
2021/03/30 02:45:36;;;;;;;7.17;4.23;;;12.70;99.90;;;;;;5094201;28;20806;-50
2021/03/30 02:48:06;;;;;;;5.67;3.13;;;12.70;99.90;;;;;;5094451;28;20778;-53
2021/03/30 02:50:36;;;;;;;7.30;4.20;;;12.70;99.90;;;;;;5094390;28;20768;-52
2021/03/30 02:53:05;;;;;;;6.90;3.47;;;12.70;99.90;;;;;;5094378;28;20825;-51
2021/03/30 02:55:35;;;;;;;9.10;3.93;;;12.60;99.90;;;;;;5094325;28;20843;-49
2021/03/30 02:58:05;;;;;;;8.50;4.10;;;12.60;99.90;;;;;;5093993;28;20605;-47
2021/03/30 03:00:36;;;;;;;5.63;3.73;;;12.60;99.90;;;;;;5094137;28;21084;-53
2021/03/30 03:03:06;;;;;;;6.80;3.50;;;12.50;99.90;;;;;;5094253;28;20570;-47
2021/03/30 03:05:34;;;;;;;5.57;3.50;;;12.50;99.90;;;;;;5094221;28;20767;-48
2021/03/30 03:08:05;;;;;;;5.70;3.57;;;12.50;99.90;;;;;;5094192;28;20877;-50
2021/03/30 03:10:34;;;;;;;4.00;3.57;;;12.50;99.90;;;;;;5089143;28;20787;-50
2021/03/30 03:13:03;;;;;;;6.90;4.20;;;12.40;99.90;;;;;;5089558;28;20772;-50
2021/03/30 03:15:33;;;;;;;9.63;3.93;;;12.40;99.90;;;;;;5091210;28;20785;-43
2021/03/30 03:18:04;;;;;;;5.00;3.63;;;12.40;99.90;;;;;;5093501;28;20843;-51
2021/03/30 03:20:33;;;;;;;4.87;3.33;;;12.40;99.90;;;;;;5091164;28;20909;-47
2021/03/30 03:23:02;;;;;;;7.67;3.60;;;12.40;99.90;;;;;;5093500;28;20839;-49
2021/03/30 03:25:31;;;;;;;7.43;4.63;;;12.30;99.90;;;;;;5093189;28;20840;-52
2021/03/30 03:28:01;;;;;;;6.63;4.23;;;12.30;99.90;;;;;;5093497;28;20761;-52
2021/03/30 03:30:31;;;;;;;6.10;4.30;;;12.30;99.90;;;;;;5093033;28;20855;-50
2021/03/30 03:33:08;;;;;;;7.73;3.87;;;12.30;99.90;;;;;;5093456;28;20836;-50
2021/03/30 03:35:37;;;;;;;7.57;3.83;;;12.30;99.90;;;;;;5091870;28;20472;-48
2021/03/30 03:38:05;;;;;;;12.37;4.33;;;12.30;99.90;;;;;;5092995;28;20847;-48
2021/03/30 03:40:35;;;;;;;8.13;4.30;;;12.20;99.90;;;;;;5093154;28;20751;-48
2021/03/30 03:43:04;;;;;;;7.20;3.90;;;12.10;99.90;;;;;;5092930;28;20860;-48
2021/03/30 03:45:32;;;;;;;6.97;4.20;;;12.10;99.90;;;;;;5093341;28;20964;-50
2021/03/30 03:48:01;;;;;;;7.63;4.00;;;12.10;99.90;;;;;;5092973;28;20784;-53
2021/03/30 03:50:31;;;;;;;5.37;3.77;;;12.10;99.90;;;;;;5094856;28;20899;-52
2021/03/30 03:53:00;;;;;;;9.07;4.03;;;12.10;99.90;;;;;;5097325;28;20911;-48
2021/03/30 03:55:32;;;;;;;7.03;4.80;;;12.10;99.90;;;;;;5093922;28;20828;-48
2021/03/30 03:58:06;;;;;;;10.13;5.00;;;12.20;99.90;;;;;;5096982;28;20767;-51
2021/03/30 04:00:36;;;;;;;8.17;6.23;;;12.10;99.90;;;;;;5095127;28;20917;-46
2021/03/30 04:03:09;;;;;;;13.00;5.93;;;12.10;99.90;;;;;;5096347;28;20952;-50
2021/03/30 04:05:43;;;;;;;8.10;5.00;;;12.10;99.90;;;;;;5096779;28;20445;-48
2021/03/30 04:08:14;;;;;;;8.23;5.30;;;12.00;99.90;;;;;;5094377;28;20882;-50
2021/03/30 04:10:47;;;;;;;6.47;4.30;;;12.00;99.90;;;;;;5095977;28;20798;-50
2021/03/30 04:13:17;;;;;;;8.60;5.50;;;12.00;99.90;;;;;;5096238;28;20777;-49
2021/03/30 04:15:46;;;;;;;10.77;4.90;;;11.90;99.90;;;;;;5096578;28;20467;-50
2021/03/30 04:18:14;;;;;;;9.43;3.97;;;11.90;99.90;;;;;;5096512;28;20777;-53
2021/03/30 04:20:44;;;;;;;10.53;5.60;;;11.90;99.90;;;;;;5096424;28;20537;-50
2021/03/30 04:23:13;;;;;;;12.43;4.97;;;11.90;99.90;;;;;;5093995;28;20973;-55
2021/03/30 04:25:41;;;;;;;16.77;5.87;;;11.90;99.90;;;;;;5096109;28;20452;-47
2021/03/30 04:28:09;;;;;;;9.53;5.13;;;11.90;99.90;;;;;;5093448;28;20762;-45
2021/03/30 04:30:38;;;;;;;7.03;4.43;;;11.90;99.90;;;;;;5096186;28;20777;-47
2021/03/30 04:33:06;;;;;;;9.83;4.70;;;11.90;99.90;;;;;;5095996;28;20540;-52
2021/03/30 04:35:35;;;;;;;8.40;5.20;;;11.90;99.90;;;;;;5095794;28;20468;-47
2021/03/30 04:38:04;;;;;;;10.57;4.83;;;11.90;99.90;;;;;;5095748;28;20832;-52
2021/03/30 04:40:33;;;;;;;7.33;4.43;;;11.90;99.90;;;;;;5095825;28;20808;-51
2021/03/30 04:43:02;;;;;;;7.77;4.33;;;11.90;99.90;;;;;;5095521;28;20542;-47
2021/03/30 04:45:31;;;;;;;12.20;4.93;;;11.90;99.90;;;;;;5093123;28;20779;-47
2021/03/30 04:47:59;;;;;;;7.10;3.80;;;11.90;99.90;;;;;;5095602;28;20778;-47
2021/03/30 04:50:28;;;;;;;7.83;4.77;;;11.90;99.90;;;;;;5092522;28;20759;-53
2021/03/30 04:52:56;;;;;;;7.43;4.47;;;11.90;99.90;;;;;;5095668;28;20917;-44
2021/03/30 04:55:26;;;;;;;7.00;5.53;;;11.90;99.90;;;;;;5095688;28;20798;-53
2021/03/30 04:57:54;;;;;;;12.40;4.90;;;11.90;99.90;;;;;;5095680;28;20915;-52
2021/03/30 05:00:23;;;;;;;6.73;5.00;;;11.90;99.90;;;;;;5095345;28;20859;-50
2021/03/30 05:02:51;;;;;;;7.83;4.60;;;11.90;99.90;;;;;;5093006;28;20949;-52
2021/03/30 05:05:20;;;;;;;8.40;4.60;;;11.80;99.90;;;;;;5095411;28;20785;-46
2021/03/30 05:07:49;;;;;;;7.73;5.20;;;11.80;99.90;;;;;;5092731;28;20834;-48
2021/03/30 05:10:18;;;;;;;7.47;5.10;;;11.80;99.90;;;;;;5092554;28;20793;-48
2021/03/30 05:12:48;;;;;;;9.83;5.60;;;11.80;99.90;;;;;;5094949;28;20873;-45
2021/03/30 05:15:16;;;;;;;22.07;5.77;;;11.80;99.90;;;;;;5095038;28;20828;-47
2021/03/30 05:17:45;;;;;;;8.20;6.17;;;11.80;99.90;;;;;;5095332;28;20833;-49
2021/03/30 05:20:14;;;;;;;14.70;4.20;;;11.80;99.90;;;;;;5095352;28;20777;-48
2021/03/30 05:22:43;;;;;;;8.87;4.40;;;11.70;99.90;;;;;;5096054;28;20798;-54
2021/03/30 05:25:12;;;;;;;8.93;5.50;;;11.70;99.90;;;;;;5094974;28;20851;-53
2021/03/30 05:27:41;;;;;;;10.73;4.93;;;11.70;99.90;;;;;;5095140;28;20777;-58
2021/03/30 05:30:13;;;;;;;13.93;5.53;;;11.80;99.90;;;;;;5092212;28;20839;-55
2021/03/30 05:32:41;;;;;;;8.53;4.90;;;11.70;99.90;;;;;;5094982;28;20789;-55
2021/03/30 05:35:12;;;;;;;9.00;6.17;;;11.70;99.90;;;;;;5092052;28;20790;-53
2021/03/30 05:37:40;;;;;;;9.60;5.10;;;11.70;99.90;;;;;;5095103;28;20744;-53
2021/03/30 05:40:10;;;;;;;6.60;5.20;;;11.70;99.90;;;;;;5092099;28;20776;-53
2021/03/30 05:42:40;;;;;;;13.50;5.73;;;11.80;99.90;;;;;;5094440;28;20885;-54
2021/03/30 05:45:12;;;;;;;10.03;5.37;;;11.80;99.90;;;;;;5094337;28;20799;-52
2021/03/30 05:47:41;;;;;;;13.60;5.60;;;11.80;99.90;;;;;;5094705;28;20825;-51
2021/03/30 05:50:13;;;;;;;9.47;5.00;;;11.80;99.90;;;;;;5094807;28;20793;-53
2021/03/30 05:52:47;;;;;;;11.77;5.73;;;11.80;99.90;;;;;;5094529;28;20957;-52
2021/03/30 05:55:23;;;;;;;13.33;5.77;;;11.80;99.90;;;;;;5095255;28;20432;-56
2021/03/30 05:57:52;;;;;;;13.50;6.30;;;11.80;99.90;;;;;;5092252;28;20769;-54
2021/03/30 06:00:24;;;;;;;8.60;5.53;;;11.80;99.90;;;;;;5094445;28;20742;-55
2021/03/30 06:02:55;;;;;;;7.50;5.30;;;11.80;99.90;;;;;;5092306;28;20820;-50
2021/03/30 06:05:24;;;;;;;9.90;5.33;;;11.80;99.90;;;;;;5094369;28;20782;-56
2021/03/30 06:07:58;;;;;;;8.80;5.73;;;11.80;99.90;;;;;;5094333;28;20448;-53
2021/03/30 06:10:29;;;;;;;9.97;5.57;;;11.80;99.90;;;;;;5093773;28;20782;-50
2021/03/30 06:12:58;;;;;;;14.10;6.40;;;11.80;99.90;;;;;;5093706;28;20827;-54
2021/03/30 06:15:31;;;;;;;9.60;5.53;;;11.90;99.90;;;;;;5094283;28;20774;-55
2021/03/30 06:18:01;;;;;;;7.67;5.20;;;11.90;99.90;;;;;;5094288;28;20809;-55
2021/03/30 06:20:34;;;;;;;9.20;5.43;;;12.00;99.90;;;;;;5091180;28;20454;-50
2021/03/30 06:23:03;;;;;;;15.77;5.80;;;12.00;99.90;;;;;;5093813;28;20785;-55
2021/03/30 06:25:46;;;;;;;8.13;4.70;;;12.00;99.90;;;;;;5094116;28;20935;-54
2021/03/30 06:28:17;;;;;;;13.17;6.73;;;12.00;99.90;;;;;;5092005;28;20526;-52
2021/03/30 06:31:06;;;;;;;10.10;5.80;;;12.10;99.90;;;;;;5093981;28;20828;-51
2021/03/30 06:33:36;;;;;;;8.03;5.67;;;12.10;99.90;;;;;;5092041;28;20769;-51
2021/03/30 06:36:23;;;;;;;12.60;5.90;;;12.10;99.90;;;;;;5093938;28;20520;-55
2021/03/30 06:38:54;;;;;;;10.07;5.07;;;12.20;99.90;;;;;;5091278;28;20765;-55
2021/03/30 06:41:38;;;;;;;10.70;6.70;;;12.30;99.90;;;;;;5093744;28;20897;-54
2021/03/30 06:44:28;;;;;;;17.30;7.40;;;12.40;99.90;;;;;;5093466;28;20934;-53
2021/03/30 06:47:00;;;;;;;8.27;6.07;;;12.50;99.90;;;;;;5093460;28;20449;-55
2021/03/30 06:49:32;;;;;;;9.43;5.80;;;12.60;99.90;;;;;;5091119;28;20766;-53
2021/03/30 06:52:12;;;;;;;6.23;4.60;;;12.70;99.90;;;;;;5093852;28;20748;-50
2021/03/30 06:54:52;;;;;;;21.80;8.03;;;12.70;99.90;;;;;;5093465;28;20749;-50
2021/03/30 06:57:39;;;;;;;8.90;5.90;;;12.80;99.90;;;;;;5093091;28;20475;-56
2021/03/30 07:00:11;;;;;;;14.50;7.63;;;12.90;99.90;;;;;;5094070;28;20454;-51
2021/03/30 07:02:46;;;;;;;9.70;6.57;;;13.00;99.90;;;;;;5094215;28;20844;-54
2021/03/30 07:05:29;;;;;;;8.90;5.60;;;13.10;99.90;;;;;;5093873;28;20920;-53
2021/03/30 07:07:59;;;;;;;9.37;6.17;;;13.10;99.50;;;;;;5094302;28;20803;-54
2021/03/30 07:10:28;;;;;;;11.70;5.83;;;13.20;99.20;;;;;;5093926;28;20832;-50
2021/03/30 07:12:57;;;;;;;10.50;7.00;;;13.30;98.80;;;;;;5094241;28;20773;-51
2021/03/30 07:15:27;;;;;;;11.87;7.27;;;13.40;98.00;;;;;;5094124;28;20773;-54
2021/03/30 07:18:13;;;;;;;10.70;7.07;;;13.60;97.00;;;;;;5093455;28;20464;-53
2021/03/30 07:20:45;;;;;;;13.00;6.40;;;13.80;95.20;;;;;;5094076;28;20773;-54
2021/03/30 07:23:20;;;;;;;9.23;6.60;;;13.80;94.90;;;;;;5094005;28;20786;-55
2021/03/30 07:25:55;;;;;;;18.37;6.60;;;13.90;94.20;;;;;;5094650;28;20512;-54
2021/03/30 07:28:28;;;;;;;12.67;7.27;;;14.00;93.90;;;;;;5097672;28;20804;-50
2021/03/30 07:31:08;;;;;;;12.30;8.30;;;14.10;93.00;;;;;;5097679;28;20870;-53
2021/03/30 07:33:45;;;;;;;9.30;7.47;;;14.10;93.00;;;;;;5099037;28;20867;-54
2021/03/30 07:36:17;;;;;;;11.53;8.20;;;14.20;92.90;;;;;;5097385;28;20445;-56
2021/03/30 07:38:50;;;;;;;11.53;6.77;;;14.20;92.20;;;;;;5097742;28;20848;-50
2021/03/30 07:41:21;;;;;;;14.73;7.80;;;14.30;92.00;;;;;;5095491;28;20457;-52
2021/03/30 07:43:51;;;;;;;12.70;8.07;;;14.40;91.80;;;;;;5094619;28;20534;-55
2021/03/30 07:46:20;;;;;;;14.97;7.53;;;14.50;91.50;;;;;;5097016;28;20747;-56
2021/03/30 07:48:51;;;;;;;9.50;8.17;;;14.60;91.50;;;;;;5094361;28;20465;-53
2021/03/30 07:51:23;;;;;;;15.47;9.33;;;14.70;91.10;;;;;;5093331;28;20786;-55
2021/03/30 07:53:53;;;;;;;10.30;7.90;;;14.90;90.90;;;;;;5096665;28;20973;-53
2021/03/30 07:56:50;;;;;;;20.03;8.10;;;15.00;90.90;;;;;;5095573;28;21090;-54
2021/03/30 07:59:47;;;;;;;15.63;8.27;;;15.20;90.50;;;;;;5096208;28;20828;-54
2021/03/30 08:02:25;;;;;;;15.20;8.53;;;15.30;90.10;;;;;;5094854;28;20910;-54
2021/03/30 08:05:10;;;;;;;10.20;7.97;;;15.40;90.50;;;;;;5095434;28;20817;-54
2021/03/30 08:07:50;;;;;;;13.23;8.67;;;15.50;90.20;;;;;;5094416;28;20770;-55
2021/03/30 08:10:30;;;;;;;10.07;8.63;;;15.60;90.40;;;;;;5097035;28;20838;-56
2021/03/30 08:13:23;;;;;;;13.10;8.30;;;15.70;90.50;;;;;;5096207;28;20801;-59
2021/03/30 08:15:52;;;;;;;14.47;8.07;;;15.90;90.90;;;;;;5096748;28;20778;-56
2021/03/30 08:18:23;;;;;;;16.50;9.50;;;16.10;90.70;;;;;;5097072;28;20778;-54
2021/03/30 08:20:58;;;;;;;11.00;8.10;;;16.50;90.00;;;;;;5097018;28;20434;-54
2021/03/30 08:23:28;;;;;;;16.17;8.53;;;17.60;86.70;;;;;;5096162;28;20445;-55
2021/03/30 08:26:11;;;;;;;14.93;9.53;;;19.20;81.60;;;;;;5099995;28;20528;-52
2021/03/30 08:28:59;;;;;;;12.90;10.03;;;20.90;73.70;;;;;;5113826;28;20908;-50
2021/03/30 08:31:30;;;;;;;13.57;8.87;;;22.60;67.00;;;;;;5111632;28;20512;-50
2021/03/30 08:34:01;;;;;;;17.17;9.80;;;23.80;58.60;;;;;;5111437;28;20862;-51
2021/03/30 08:36:34;;;;;;;15.20;9.93;;;24.90;55.40;;;;;;5108521;28;20450;-51
2021/03/30 08:39:08;;;;;;;15.40;10.07;;;26.60;51.00;;;;;;5107042;28;20866;-53
2021/03/30 08:41:59;;;;;;;12.30;9.33;;;27.20;46.40;;;;;;5105095;28;20773;-52
2021/03/30 08:44:44;;;;;;;13.50;9.00;;;27.80;43.90;;;;;;5104710;28;20876;-54
2021/03/30 08:47:26;;;;;;;16.33;9.47;;;27.30;43.20;;;;;;5105931;28;20464;-56
2021/03/30 08:50:14;;;;;;;15.17;9.43;;;27.50;43.40;;;;;;5106404;28;20479;-55
2021/03/30 08:52:44;;;;;;;12.50;10.43;;;28.00;42.20;;;;;;5106385;28;20785;-55
2021/03/30 08:55:13;;;;;;;15.40;9.83;;;28.00;41.70;;;;;;5105348;28;20785;-54
2021/03/30 08:57:49;;;;;;;15.40;10.37;;;27.50;41.60;;;;;;5106274;28;20466;-55
2021/03/30 09:00:20;;;;;;;16.67;10.03;;;26.70;42.40;;;;;;5106576;28;20978;-54
2021/03/30 09:03:00;;;;;;;14.73;10.00;;;27.00;42.40;;;;;;5106565;28;20406;-55
2021/03/30 09:05:29;;;;;;;15.37;10.43;;;27.60;41.80;;;;;;5108032;28;20469;-56
2021/03/30 09:07:58;;;;;;;15.33;10.00;;;28.30;40.70;;;;;;5106733;28;20832;-55
2021/03/30 09:10:27;;;;;;;14.50;10.20;;;28.50;40.20;;;;;;5105350;28;20457;-56
2021/03/30 09:13:11;;;;;;;15.43;10.40;;;28.30;40.00;;;;;;5106087;28;20457;-56
2021/03/30 09:15:40;;;;;;;15.73;10.00;;;28.20;40.40;;;;;;5105848;28;20765;-54
2021/03/30 09:18:09;;;;;;;14.53;10.07;;;28.10;40.20;;;;;;5106191;28;20512;-57
2021/03/30 09:20:38;;;;;;;16.57;9.40;;;28.40;40.60;;;;;;5106842;28;20794;-55
2021/03/30 09:23:17;;;;;;;11.97;9.40;;;28.80;40.20;;;;;;5106787;28;20472;-53
2021/03/30 09:25:50;;;;;;;10.87;8.77;;;28.60;39.80;;;;;;5105984;28;20452;-56
2021/03/30 09:28:21;;;;;;;13.70;8.50;;;28.30;39.80;;;;;;5105540;28;20463;-55
2021/03/30 09:30:50;;;;;;;12.43;9.10;;;27.80;40.70;;;;;;5104999;28;20473;-56
2021/03/30 09:33:19;;;;;;;15.63;9.10;;;27.60;40.90;;;;;;5105386;28;20918;-56
2021/03/30 09:35:48;;;;;;;14.03;8.17;;;27.40;41.90;;;;;;5106390;28;20475;-56
2021/03/30 09:38:19;;;;;;;12.20;9.10;;;27.70;42.80;;;;;;5105624;28;20845;-56
2021/03/30 09:40:48;;;;;;;10.30;8.63;;;27.60;43.10;;;;;;5106487;28;20517;-57
2021/03/30 09:43:18;;;;;;;15.50;8.77;;;27.80;42.80;;;;;;5106253;28;20795;-56
2021/03/30 09:45:47;;;;;;;10.60;7.87;;;27.90;43.70;;;;;;5105529;28;20540;-54
2021/03/30 09:48:18;;;;;;;15.20;10.03;;;27.90;43.40;;;;;;5105726;28;20952;-55
2021/03/30 09:50:49;;;;;;;12.00;8.27;;;28.20;43.40;;;;;;5106758;28;20926;-55
2021/03/30 09:53:20;;;;;;;18.07;8.97;;;28.60;43.90;;;;;;5106663;28;20457;-54
2021/03/30 09:55:49;;;;;;;12.63;9.63;;;28.80;42.70;;;;;;5106725;28;20480;-54
2021/03/30 09:58:18;;;;;;;11.30;8.40;;;29.10;43.30;;;;;;5105747;28;20456;-55
2021/03/30 10:00:48;;;;;;;15.10;8.10;;;29.50;42.60;;;;;;5105379;28;20460;-55
2021/03/30 10:03:18;;;;;;;16.30;8.33;;;30.00;42.10;;;;;;5104977;28;20850;-56
2021/03/30 10:05:47;;;;;;;14.60;8.80;;;30.20;41.10;;;;;;5104353;28;20429;-55
2021/03/30 10:08:22;;;;;;;15.00;8.33;;;30.00;40.00;;;;;;5104113;28;20860;-56
2021/03/30 10:10:53;;;;;;;15.37;8.80;;;30.00;40.30;;;;;;5103661;28;20791;-55
2021/03/30 10:13:26;;;;;;;12.20;8.47;;;29.60;41.00;;;;;;5103959;28;20811;-56
2021/03/30 10:15:56;;;;;;;10.40;8.60;;;29.80;41.40;;;;;;5104308;28;20853;-54
2021/03/30 10:18:26;;;;;;;14.90;7.97;;;30.20;40.50;;;;;;5104478;28;20914;-53
2021/03/30 10:20:56;;;;;;;11.43;8.53;;;30.20;40.10;;;;;;5103356;28;20418;-56
2021/03/30 10:23:29;;;;;;;10.17;7.53;;;30.10;40.90;;;;;;5104701;28;20775;-53
2021/03/30 10:25:58;;;;;;;13.27;7.07;;;30.00;40.30;;;;;;5103294;28;20433;-57
2021/03/30 10:28:28;;;;;;;9.17;8.20;;;29.80;40.90;;;;;;5103684;28;20793;-56
2021/03/30 10:30:58;;;;;;;10.60;8.30;;;29.40;40.80;;;;;;5103177;28;20446;-53
2021/03/30 10:33:39;;;;;;;10.27;8.50;;;29.20;40.80;;;;;;5104615;28;20920;-55
2021/03/30 10:36:10;;;;;;;16.23;10.23;;;29.20;40.80;;;;;;5103258;28;20828;-53
2021/03/30 10:38:41;;;;;;;23.17;14.77;;;28.90;40.90;;;;;;5103161;28;20461;-56
2021/03/30 10:41:10;;;;;;;17.07;8.87;;;28.90;41.00;;;;;;5103149;28;20461;-56
2021/03/30 10:43:39;;;;;;;13.07;9.80;;;28.60;41.40;;;;;;5102462;28;20823;-51
2021/03/30 10:46:20;;;;;;;12.10;9.60;;;28.20;42.00;;;;;;5103042;28;20465;-51
2021/03/30 10:49:02;;;;;;;14.23;9.30;;;27.90;42.40;;;;;;5103696;28;20912;-54
2021/03/30 10:51:32;;;;;;;17.47;9.73;;;27.70;42.60;;;;;;5104023;28;20803;-51
2021/03/30 10:54:03;;;;;;;12.40;8.63;;;27.50;42.70;;;;;;5104005;28;20452;-55
2021/03/30 10:56:32;;;;;;;10.90;8.83;;;27.10;43.40;;;;;;5103665;28;20909;-56
2021/03/30 10:59:00;;;;;;;9.50;8.53;;;26.70;43.90;;;;;;5216020;22;20490;-53
2021/03/30 11:01:29;;;;;;;14.57;9.67;;;26.60;44.40;;;;;;5093388;22;20485;-54
2021/03/30 11:03:57;;;;;;;18.10;9.30;;;26.50;45.30;;;;;;5088527;28;20486;-56
2021/03/30 11:06:26;;;;;;;14.70;8.80;;;26.50;44.90;;;;;;5087691;28;20454;-55
2021/03/30 11:08:57;;;;;;;11.07;7.67;;;25.90;44.80;;;;;;5088230;28;20846;-55
2021/03/30 11:11:27;;;;;;;13.10;7.17;;;25.40;46.30;;;;;;5088796;28;20778;-56
2021/03/30 11:13:55;;;;;;;11.03;8.57;;;25.40;46.60;;;;;;5088249;28;20442;-54
2021/03/30 11:16:24;;;;;;;16.20;9.17;;;25.00;47.00;;;;;;5088731;28;20454;-55
2021/03/30 11:18:53;;;;;;;11.07;8.30;;;24.50;48.50;;;;;;5089852;28;20851;-54
2021/03/30 11:21:22;;;;;;;11.80;7.10;;;24.50;48.50;;;;;;5089712;28;20450;-56
2021/03/30 11:23:57;;;;;;;11.67;8.10;;;24.20;48.50;;;;;;5089507;28;20782;-55
2021/03/30 11:26:27;;;;;;;13.73;8.10;;;24.20;48.70;;;;;;5090317;28;20438;-54
2021/03/30 11:28:57;;;;;;;13.43;9.07;;;24.00;49.40;;;;;;5089398;28;20782;-54
2021/03/30 11:31:40;;;;;;;11.13;8.40;;;23.80;49.80;;;;;;5089189;28;20568;-54
2021/03/30 11:34:15;;;;;;;14.83;8.47;;;23.60;49.60;;;;;;5089252;28;20910;-56
2021/03/30 11:36:45;;;;;;;18.83;8.73;;;23.50;50.40;;;;;;5089837;28;20433;-52
2021/03/30 11:39:14;;;;;;;10.00;8.07;;;23.50;50.90;;;;;;5089555;28;20957;-52
2021/03/30 11:41:44;;;;;;;10.10;7.47;;;23.40;50.20;;;;;;5089124;28;20533;-54
2021/03/30 11:44:13;;;;;;;14.03;8.43;;;23.30;50.90;;;;;;5089711;28;20794;-52
2021/03/30 11:46:41;;;;;;;15.90;7.77;;;23.00;50.30;;;;;;5091285;28;20450;-56
2021/03/30 11:49:10;;;;;;;12.13;8.77;;;22.70;50.70;;;;;;5090885;28;20450;-53
2021/03/30 11:51:38;;;;;;;18.17;10.20;;;22.40;51.10;;;;;;5091515;28;20883;-52
2021/03/30 11:54:07;;;;;;;14.80;8.40;;;22.30;51.30;;;;;;5090705;28;20826;-53
2021/03/30 11:56:36;;;;;;;10.83;8.07;;;22.10;51.30;;;;;;5091306;28;20772;-55
2021/03/30 11:59:06;;;;;;;12.17;7.20;;;22.10;51.20;;;;;;5091982;28;20901;-56
2021/03/30 12:01:34;;;;;;;16.30;7.43;;;22.10;50.90;;;;;;5089289;28;20814;-56
2021/03/30 12:04:03;;;;;;;15.43;7.90;;;22.00;51.10;;;;;;5080025;28;20469;-54
2021/03/30 12:06:32;;;;;;;11.70;7.97;;;22.00;50.90;;;;;;5081316;28;20457;-56
2021/03/30 12:09:01;;;;;;;13.13;8.80;;;22.00;51.30;;;;;;5087289;28;20466;-55
2021/03/30 12:11:31;;;;;;;12.33;9.10;;;22.20;51.60;;;;;;5080706;28;20450;-53
2021/03/30 12:14:02;;;;;;;15.80;8.60;;;22.30;51.00;;;;;;5083768;28;20749;-55
2021/03/30 12:16:32;;;;;;;14.53;9.97;;;22.30;51.50;;;;;;5082909;28;20535;-53
2021/03/30 12:19:00;;;;;;;13.40;8.97;;;22.40;50.50;;;;;;5076994;28;20883;-54
2021/03/30 12:21:29;;;;;;;16.10;9.33;;;22.50;50.70;;;;;;5074951;28;20776;-55
2021/03/30 12:24:31;;;;;;;12.80;9.27;;;22.50;50.80;;;;;;5088678;28;20553;-55
2021/03/30 12:26:59;;;;;;;13.57;9.37;;;22.50;51.30;;;;;;5090519;28;20857;-55
2021/03/30 12:29:28;;;;;;;17.93;9.50;;;22.50;50.30;;;;;;5081416;28;20469;-53
2021/03/30 12:32:00;;;;;;;15.00;9.37;;;22.50;50.90;;;;;;5077694;28;20450;-55
2021/03/30 12:34:29;;;;;;;19.40;11.40;;;22.50;50.60;;;;;;5091252;28;20427;-52
2021/03/30 12:37:00;;;;;;;12.10;8.97;;;22.50;51.00;;;;;;5090636;28;20825;-53
2021/03/30 12:39:29;;;;;;;11.97;8.67;;;22.50;51.30;;;;;;5090307;28;20442;-56
2021/03/30 12:41:57;;;;;;;13.67;9.37;;;22.60;51.40;;;;;;5090939;28;20450;-52
2021/03/30 12:44:26;;;;;;;14.90;9.53;;;22.70;51.00;;;;;;5090265;28;20812;-52
2021/03/30 12:46:55;;;;;;;14.37;9.80;;;22.80;50.30;;;;;;5090130;28;20450;-56
2021/03/30 12:49:25;;;;;;;13.17;9.30;;;22.90;49.80;;;;;;5090699;28;20471;-55
2021/03/30 12:51:53;;;;;;;16.23;9.53;;;22.80;50.30;;;;;;5077802;28;20723;-53
2021/03/30 12:54:22;;;;;;;15.70;9.00;;;22.80;50.20;;;;;;5090011;28;20446;-55
2021/03/30 12:56:50;;;;;;;12.30;8.30;;;22.80;50.30;;;;;;5090853;28;20452;-55
2021/03/30 12:59:19;;;;;;;13.83;9.00;;;22.80;50.40;;;;;;5091419;28;20865;-55
2021/03/30 13:01:48;;;;;;;14.20;9.67;;;22.80;50.00;;;;;;5086480;28;20487;-53
2021/03/30 13:04:16;;;;;;;16.73;9.80;;;22.80;50.00;;;;;;5069398;28;20471;-52